createdAt,value
2017-12-17T00:00:32.226Z,5.22
2017-12-17T00:03:00.482Z,5.25
2017-12-17T00:05:28.756Z,5.18
2017-12-17T00:07:57.058Z,5.28
2017-12-17T00:10:25.352Z,5.26
2017-12-17T00:12:53.643Z,5.22
2017-12-17T00:15:21.882Z,5.25
2017-12-17T00:17:50.183Z,5.20
2017-12-17T00:20:18.431Z,5.29
2017-12-17T00:22:46.712Z,5.17
2017-12-17T00:25:14.968Z,5.17
2017-12-17T00:27:43.263Z,5.09
2017-12-17T00:30:11.527Z,5.21
2017-12-17T00:32:39.837Z,5.26
2017-12-17T00:35:08.089Z,5.33
2017-12-17T00:37:36.367Z,5.35
2017-12-17T00:40:05.391Z,5.32
2017-12-17T00:42:33.690Z,5.42
2017-12-17T00:45:01.948Z,5.48
2017-12-17T00:47:30.247Z,5.56
2017-12-17T00:49:58.488Z,5.58
2017-12-17T00:52:26.758Z,5.48
2017-12-17T00:54:55.044Z,5.46
2017-12-17T00:57:23.315Z,5.48
2017-12-17T00:59:51.694Z,5.47
2017-12-17T01:02:19.916Z,5.47
2017-12-17T01:04:48.223Z,5.50
2017-12-17T01:07:16.471Z,5.55
2017-12-17T01:09:44.774Z,5.56
2017-12-17T01:12:13.019Z,5.63
2017-12-17T01:14:41.298Z,5.59
2017-12-17T01:17:09.541Z,5.62
2017-12-17T01:19:37.819Z,5.47
2017-12-17T01:22:06.095Z,5.39
2017-12-17T01:24:34.356Z,5.45
2017-12-17T01:27:02.628Z,5.50
2017-12-17T01:29:30.884Z,5.58
2017-12-17T01:31:59.160Z,5.61
2017-12-17T01:34:27.416Z,5.44
2017-12-17T01:36:55.730Z,5.45
2017-12-17T01:39:23.956Z,5.42
2017-12-17T01:41:53.094Z,5.44
2017-12-17T01:44:21.358Z,5.53
2017-12-17T01:46:49.654Z,5.48
2017-12-17T01:49:17.935Z,5.43
2017-12-17T01:51:46.206Z,5.50
2017-12-17T01:54:14.471Z,5.53
2017-12-17T01:56:42.741Z,5.48
2017-12-17T01:59:11.020Z,5.58
2017-12-17T02:01:39.275Z,5.49
2017-12-17T02:04:07.574Z,5.55
2017-12-17T02:06:35.821Z,5.58
2017-12-17T02:09:04.840Z,5.64
2017-12-17T02:11:33.096Z,5.71
2017-12-17T02:14:01.574Z,5.71
2017-12-17T02:16:29.826Z,5.63
2017-12-17T02:18:58.166Z,5.60
2017-12-17T02:21:26.427Z,5.57
2017-12-17T02:23:54.674Z,5.55
2017-12-17T02:26:22.980Z,5.62
2017-12-17T02:28:51.236Z,5.71
2017-12-17T02:31:19.523Z,5.62
2017-12-17T02:33:47.774Z,5.66
2017-12-17T02:36:16.046Z,5.65
2017-12-17T02:38:44.304Z,5.68
2017-12-17T02:41:12.653Z,5.65
2017-12-17T02:43:40.916Z,5.42
2017-12-17T02:46:09.188Z,5.39
2017-12-17T02:48:37.467Z,5.55
2017-12-17T02:51:05.731Z,5.57
2017-12-17T02:53:34.036Z,5.52
2017-12-17T02:56:02.275Z,5.51
2017-12-17T02:58:30.573Z,5.46
2017-12-17T03:00:58.851Z,5.56
2017-12-17T03:03:27.382Z,5.62
2017-12-17T03:05:55.667Z,5.54
2017-12-17T03:08:23.933Z,5.43
2017-12-17T03:10:52.207Z,5.50
2017-12-17T03:13:20.451Z,5.37
2017-12-17T03:15:48.751Z,5.22
2017-12-17T03:18:17.120Z,5.22
2017-12-17T03:20:45.502Z,5.26
2017-12-17T03:23:13.714Z,5.26
2017-12-17T03:25:42.195Z,5.14
2017-12-17T03:28:10.462Z,5.25
2017-12-17T03:30:38.764Z,5.36
2017-12-17T03:33:07.032Z,5.36
2017-12-17T03:35:35.287Z,5.18
2017-12-17T03:38:04.299Z,5.30
2017-12-17T03:40:32.554Z,5.28
2017-12-17T03:43:00.836Z,5.32
2017-12-17T03:45:29.107Z,5.28
2017-12-17T03:47:57.399Z,5.23
2017-12-17T03:50:25.703Z,5.24
2017-12-17T03:52:53.981Z,5.23
2017-12-17T03:55:22.262Z,5.15
2017-12-17T03:57:50.503Z,5.11
2017-12-17T04:00:18.795Z,5.25
2017-12-17T04:02:47.075Z,5.19
2017-12-17T04:05:15.351Z,5.20
2017-12-17T04:07:44.261Z,5.25
2017-12-17T04:10:12.534Z,5.23
2017-12-17T04:12:40.788Z,5.26
2017-12-17T04:15:09.067Z,5.23
2017-12-17T04:17:37.323Z,5.27
2017-12-17T04:20:05.602Z,5.37
2017-12-17T04:22:33.862Z,5.37
2017-12-17T04:25:02.139Z,5.34
2017-12-17T04:27:30.427Z,5.37
2017-12-17T04:29:58.691Z,5.33
2017-12-17T04:32:27.055Z,5.40
2017-12-17T04:34:55.315Z,5.34
2017-12-17T04:37:23.588Z,5.37
2017-12-17T04:39:51.849Z,5.33
2017-12-17T04:42:20.136Z,5.23
2017-12-17T04:44:48.393Z,5.19
2017-12-17T04:47:16.631Z,5.23
2017-12-17T04:49:44.907Z,5.29
2017-12-17T04:52:13.220Z,5.24
2017-12-17T04:54:41.455Z,5.18
2017-12-17T04:57:09.768Z,5.12
2017-12-17T04:59:38.041Z,5.13
2017-12-17T05:02:06.315Z,5.12
2017-12-17T05:04:34.607Z,5.06
2017-12-17T05:07:02.877Z,5.14
2017-12-17T05:09:31.203Z,5.16
2017-12-17T05:12:00.483Z,5.23
2017-12-17T05:14:28.740Z,5.17
2017-12-17T05:16:57.011Z,5.04
2017-12-17T05:19:25.274Z,5.08
2017-12-17T05:21:53.551Z,4.93
2017-12-17T05:24:21.807Z,4.99
2017-12-17T05:26:50.096Z,4.99
2017-12-17T05:29:18.376Z,5.04
2017-12-17T05:31:46.634Z,5.00
2017-12-17T05:34:14.863Z,4.98
2017-12-17T05:36:43.153Z,4.88
2017-12-17T05:39:11.400Z,4.91
2017-12-17T05:41:39.683Z,5.02
2017-12-17T05:44:07.969Z,5.05
2017-12-17T05:46:36.219Z,5.07
2017-12-17T05:49:04.483Z,5.11
2017-12-17T05:51:32.734Z,5.08
2017-12-17T05:54:01.035Z,5.09
2017-12-17T05:56:29.287Z,5.10
2017-12-17T05:58:57.563Z,5.08
2017-12-17T06:01:25.828Z,5.06
2017-12-17T06:03:54.084Z,4.91
2017-12-17T06:06:22.360Z,4.85
2017-12-17T06:08:50.590Z,4.85
2017-12-17T06:11:18.867Z,4.90
2017-12-17T06:13:47.119Z,4.86
2017-12-17T06:16:15.383Z,4.91
2017-12-17T06:18:43.631Z,4.78
2017-12-17T06:21:11.909Z,4.62
2017-12-17T06:23:40.150Z,4.57
2017-12-17T06:26:08.435Z,4.54
2017-12-17T06:28:36.695Z,4.52
2017-12-17T06:31:05.246Z,4.36
2017-12-17T06:33:33.502Z,4.36
2017-12-17T06:36:01.772Z,4.34
2017-12-17T06:38:30.039Z,4.26
2017-12-17T06:40:58.327Z,4.24
2017-12-17T06:43:26.603Z,4.31
2017-12-17T06:45:54.865Z,4.43
2017-12-17T06:48:23.214Z,4.43
2017-12-17T06:50:51.471Z,4.39
2017-12-17T06:53:19.747Z,4.39
2017-12-17T06:55:48.019Z,4.31
2017-12-17T06:58:16.503Z,4.25
2017-12-17T07:00:44.757Z,4.33
2017-12-17T07:03:13.007Z,4.41
2017-12-17T07:05:41.283Z,4.31
2017-12-17T07:08:09.875Z,4.32
2017-12-17T07:10:38.142Z,4.29
2017-12-17T07:13:06.390Z,4.20
2017-12-17T07:15:34.671Z,4.08
2017-12-17T07:18:02.933Z,4.26
2017-12-17T07:20:31.340Z,4.21
2017-12-17T07:22:59.615Z,4.24
2017-12-17T07:25:28.064Z,4.29
2017-12-17T07:27:56.347Z,4.36
2017-12-17T07:30:24.622Z,4.46
2017-12-17T07:32:52.903Z,4.36
2017-12-17T07:35:21.170Z,4.30
2017-12-17T07:37:49.450Z,4.39
2017-12-17T07:40:17.702Z,4.33
2017-12-17T07:42:45.998Z,4.32
2017-12-17T07:45:14.260Z,4.32
2017-12-17T07:47:42.551Z,4.35
2017-12-17T07:50:10.830Z,4.30
2017-12-17T07:52:39.598Z,4.34
2017-12-17T07:55:07.888Z,4.29
2017-12-17T07:57:36.165Z,4.28
2017-12-17T08:00:04.459Z,4.34
2017-12-17T08:02:32.724Z,4.36
2017-12-17T08:05:00.995Z,4.26
2017-12-17T08:07:29.274Z,4.31
2017-12-17T08:09:57.547Z,4.31
2017-12-17T08:12:25.841Z,4.40
2017-12-17T08:14:54.115Z,4.39
2017-12-17T08:17:22.392Z,4.40
2017-12-17T08:19:50.650Z,4.47
2017-12-17T08:22:18.935Z,4.39
2017-12-17T08:24:47.183Z,4.45
2017-12-17T08:27:15.495Z,4.48
2017-12-17T08:29:43.748Z,4.62
2017-12-17T08:32:12.094Z,4.60
2017-12-17T08:34:40.504Z,4.55
2017-12-17T08:37:08.755Z,4.52
2017-12-17T08:39:37.020Z,4.47
2017-12-17T08:42:05.411Z,4.57
2017-12-17T08:44:33.679Z,4.58
2017-12-17T08:47:01.915Z,4.65
2017-12-17T08:49:30.201Z,4.39
2017-12-17T08:51:58.462Z,4.32
2017-12-17T08:54:26.755Z,4.43
2017-12-17T08:56:55.011Z,4.48
2017-12-17T08:59:23.298Z,4.42
2017-12-17T09:01:51.584Z,4.35
2017-12-17T09:04:19.871Z,4.40
2017-12-17T09:06:48.171Z,4.46
2017-12-17T09:09:16.456Z,4.38
2017-12-17T09:11:44.757Z,4.43
2017-12-17T09:14:13.034Z,4.50
2017-12-17T09:16:41.290Z,4.61
2017-12-17T09:19:09.551Z,4.68
2017-12-17T09:21:37.837Z,4.66
2017-12-17T09:24:06.101Z,4.63
2017-12-17T09:26:34.399Z,4.55
2017-12-17T09:29:02.652Z,4.63
2017-12-17T09:31:31.216Z,4.54
2017-12-17T09:33:59.479Z,4.65
2017-12-17T09:36:27.775Z,4.75
2017-12-17T09:38:56.078Z,4.76
2017-12-17T09:41:24.351Z,4.86
2017-12-17T09:43:52.638Z,4.83
2017-12-17T09:46:20.914Z,4.80
2017-12-17T09:48:49.175Z,4.76
2017-12-17T09:51:17.464Z,4.71
2017-12-17T09:53:45.744Z,4.78
2017-12-17T09:56:14.002Z,4.78
2017-12-17T09:58:42.291Z,4.84
2017-12-17T10:01:10.547Z,4.75
2017-12-17T10:03:38.825Z,4.45
2017-12-17T10:06:07.087Z,4.65
2017-12-17T10:08:35.385Z,4.72
2017-12-17T10:11:03.711Z,4.66
2017-12-17T10:13:31.944Z,4.59
2017-12-17T10:16:00.237Z,4.72
2017-12-17T10:18:28.501Z,4.86
2017-12-17T10:20:56.759Z,4.81
2017-12-17T10:23:25.047Z,4.86
2017-12-17T10:25:53.315Z,4.93
2017-12-17T10:28:21.605Z,4.81
2017-12-17T10:30:49.860Z,4.87
2017-12-17T10:33:18.126Z,4.89
2017-12-17T10:35:46.422Z,4.81
2017-12-17T10:38:14.679Z,4.85
2017-12-17T10:40:42.968Z,4.97
2017-12-17T10:43:11.231Z,4.98
2017-12-17T10:45:39.547Z,4.98
2017-12-17T10:48:07.802Z,4.93
2017-12-17T10:50:36.100Z,4.94
2017-12-17T10:53:04.803Z,4.85
2017-12-17T10:55:33.059Z,4.88
2017-12-17T10:58:01.347Z,4.84
2017-12-17T11:00:29.608Z,4.92
2017-12-17T11:02:57.919Z,4.91
2017-12-17T11:05:26.200Z,4.86
2017-12-17T11:07:54.483Z,4.77
2017-12-17T11:10:22.733Z,4.87
2017-12-17T11:12:51.027Z,5.02
2017-12-17T11:15:19.282Z,5.09
2017-12-17T11:17:47.563Z,5.19
2017-12-17T11:20:15.818Z,5.18
2017-12-17T11:22:44.114Z,5.23
2017-12-17T11:25:12.394Z,5.15
2017-12-17T11:27:40.652Z,5.27
2017-12-17T11:30:09.014Z,5.21
2017-12-17T11:32:37.393Z,5.08
2017-12-17T11:35:05.816Z,5.06
2017-12-17T11:37:34.028Z,5.11
2017-12-17T11:40:02.287Z,5.11
2017-12-17T11:42:30.567Z,5.32
2017-12-17T11:44:58.876Z,5.36
2017-12-17T11:47:27.119Z,5.17
2017-12-17T11:49:55.418Z,5.40
2017-12-17T11:52:23.774Z,5.29
2017-12-17T11:54:52.187Z,5.28
2017-12-17T11:57:20.471Z,5.26
2017-12-17T11:59:48.732Z,5.38
2017-12-17T12:02:17.015Z,5.36
2017-12-17T12:04:45.271Z,5.34
2017-12-17T12:07:13.590Z,5.24
2017-12-17T12:09:41.859Z,5.31
2017-12-17T12:12:10.155Z,5.37
2017-12-17T12:14:38.848Z,5.49
2017-12-17T12:17:07.105Z,5.47
2017-12-17T12:19:35.457Z,5.34
2017-12-17T12:22:04.619Z,5.29
2017-12-17T12:24:32.913Z,5.31
2017-12-17T12:27:01.158Z,5.44
2017-12-17T12:29:29.447Z,5.54
2017-12-17T12:31:57.754Z,5.39
2017-12-17T12:34:26.004Z,5.41
2017-12-17T12:36:54.280Z,5.42
2017-12-17T12:39:22.574Z,5.43
2017-12-17T12:41:50.850Z,5.35
2017-12-17T12:44:19.095Z,5.48
2017-12-17T12:46:47.372Z,5.33
2017-12-17T12:49:15.668Z,5.40
2017-12-17T12:51:43.962Z,5.35
2017-12-17T12:54:12.208Z,5.39
2017-12-17T12:56:40.490Z,5.44
2017-12-17T12:59:08.748Z,5.33
2017-12-17T13:01:37.030Z,5.43
2017-12-17T13:04:05.594Z,5.52
2017-12-17T13:06:33.874Z,5.46
2017-12-17T13:09:02.173Z,5.50
2017-12-17T13:11:30.452Z,5.41
2017-12-17T13:13:58.728Z,5.44
2017-12-17T13:16:26.978Z,5.23
2017-12-17T13:18:55.286Z,5.23
2017-12-17T13:21:23.534Z,5.25
2017-12-17T13:23:51.811Z,5.14
2017-12-17T13:26:20.123Z,5.17
2017-12-17T13:28:48.419Z,5.17
2017-12-17T13:31:16.683Z,5.07
2017-12-17T13:33:44.965Z,5.07
2017-12-17T13:36:13.272Z,4.97
2017-12-17T13:38:41.560Z,5.01
2017-12-17T13:41:09.825Z,5.13
2017-12-17T13:43:38.106Z,5.10
2017-12-17T13:46:06.364Z,5.13
2017-12-17T13:48:34.718Z,5.15
2017-12-17T13:51:04.034Z,5.30
2017-12-17T13:53:32.299Z,5.38
2017-12-17T13:56:00.591Z,5.28
2017-12-17T13:58:28.855Z,5.26
2017-12-17T14:00:57.143Z,5.30
2017-12-17T14:03:25.816Z,5.40
2017-12-17T14:05:54.090Z,5.38
2017-12-17T14:08:22.387Z,5.53
2017-12-17T14:10:50.677Z,5.41
2017-12-17T14:13:19.012Z,5.43
2017-12-17T14:15:47.243Z,5.50
2017-12-17T14:18:15.532Z,5.54
2017-12-17T14:20:43.787Z,5.43
2017-12-17T14:23:12.060Z,5.34
2017-12-17T14:25:40.311Z,5.46
2017-12-17T14:28:08.605Z,5.31
2017-12-17T14:30:36.882Z,5.25
2017-12-17T14:33:05.175Z,5.21
2017-12-17T14:35:33.438Z,5.16
2017-12-17T14:38:01.717Z,5.16
2017-12-17T14:40:30.015Z,5.23
2017-12-17T14:42:58.318Z,5.18
2017-12-17T14:45:26.571Z,5.33
2017-12-17T14:47:55.713Z,5.41
2017-12-17T14:50:24.020Z,5.34
2017-12-17T14:52:52.285Z,5.44
2017-12-17T14:55:20.549Z,5.43
2017-12-17T14:57:49.081Z,5.43
2017-12-17T15:00:17.349Z,5.51
2017-12-17T15:02:45.603Z,5.42
2017-12-17T15:05:13.883Z,5.45
2017-12-17T15:07:42.168Z,5.47
2017-12-17T15:10:10.485Z,5.49
2017-12-17T15:12:38.742Z,5.29
2017-12-17T15:15:07.063Z,5.41
2017-12-17T15:17:35.346Z,5.37
2017-12-17T15:20:03.795Z,5.31
2017-12-17T15:22:34.994Z,5.33
2017-12-17T15:25:03.299Z,5.27
2017-12-17T15:27:31.598Z,5.22
2017-12-17T15:29:59.845Z,5.32
2017-12-17T15:32:28.129Z,5.21
2017-12-17T15:34:56.383Z,5.20
2017-12-17T15:37:24.677Z,5.08
2017-12-17T15:39:53.878Z,4.92
2017-12-17T15:42:22.155Z,4.92
2017-12-17T15:44:50.442Z,4.93
2017-12-17T15:47:18.754Z,4.84
2017-12-17T15:49:47.051Z,4.93
2017-12-17T15:52:15.321Z,4.80
2017-12-17T15:54:43.602Z,5.00
2017-12-17T15:57:11.876Z,4.94
2017-12-17T15:59:40.168Z,4.94
2017-12-17T16:02:08.426Z,4.88
2017-12-17T16:04:36.832Z,4.90
2017-12-17T16:07:05.084Z,4.88
2017-12-17T16:09:33.368Z,4.82
2017-12-17T16:12:01.638Z,4.90
2017-12-17T16:14:29.948Z,5.01
2017-12-17T16:16:58.232Z,4.77
2017-12-17T16:19:26.543Z,4.87
2017-12-17T16:21:54.844Z,5.01
2017-12-17T16:24:23.195Z,5.04
2017-12-17T16:26:51.484Z,5.00
2017-12-17T16:29:19.770Z,4.98
2017-12-17T16:31:48.055Z,4.77
2017-12-17T16:34:16.323Z,4.85
2017-12-17T16:36:45.524Z,4.83
2017-12-17T16:39:13.998Z,4.80
2017-12-17T16:41:42.280Z,4.95
2017-12-17T16:44:10.555Z,4.92
2017-12-17T16:46:38.839Z,4.75
2017-12-17T16:49:07.109Z,4.83
2017-12-17T16:51:35.646Z,4.89
2017-12-17T16:54:03.929Z,4.76
2017-12-17T16:56:32.175Z,4.73
2017-12-17T16:59:00.463Z,4.69
2017-12-17T17:01:28.708Z,4.67
2017-12-17T17:03:57.005Z,4.70
2017-12-17T17:06:25.272Z,4.82
2017-12-17T17:08:53.551Z,4.83
2017-12-17T17:11:21.821Z,4.83
2017-12-17T17:13:50.075Z,4.99
2017-12-17T17:16:18.327Z,5.02
2017-12-17T17:18:46.613Z,5.04
2017-12-17T17:21:14.868Z,5.02
2017-12-17T17:23:43.137Z,5.01
2017-12-17T17:26:11.420Z,4.88
2017-12-17T17:28:39.691Z,4.88
2017-12-17T17:31:07.971Z,4.90
2017-12-17T17:33:36.212Z,4.91
2017-12-17T17:36:04.534Z,4.99
2017-12-17T17:38:32.808Z,5.09
2017-12-17T17:41:01.903Z,5.10
2017-12-17T17:43:30.224Z,5.40
2017-12-17T17:45:58.486Z,5.49
2017-12-17T17:48:26.741Z,5.50
2017-12-17T17:50:55.031Z,5.53
2017-12-17T17:53:23.300Z,5.51
2017-12-17T17:55:51.603Z,5.51
2017-12-17T17:58:19.879Z,5.59
2017-12-17T18:00:48.166Z,5.73
2017-12-17T18:03:16.524Z,5.81
2017-12-17T18:05:44.807Z,5.87
2017-12-17T18:08:13.113Z,5.89
2017-12-17T18:10:41.347Z,5.91
2017-12-17T18:13:09.655Z,5.91
2017-12-17T18:15:37.915Z,5.92
2017-12-17T18:18:06.228Z,5.80
2017-12-17T18:20:34.475Z,5.72
2017-12-17T18:23:02.766Z,5.86
2017-12-17T18:25:31.064Z,5.85
2017-12-17T18:27:59.348Z,5.87
2017-12-17T18:30:27.629Z,5.77
2017-12-17T18:32:55.870Z,5.81
2017-12-17T18:35:24.170Z,5.73
2017-12-17T18:37:52.433Z,5.87
2017-12-17T18:40:20.701Z,5.77
2017-12-17T18:42:48.994Z,5.68
2017-12-17T18:45:17.282Z,5.78
2017-12-17T18:47:45.502Z,5.86
2017-12-17T18:50:13.776Z,5.82
2017-12-17T18:52:42.053Z,5.74
2017-12-17T18:55:10.328Z,5.71
2017-12-17T18:57:38.608Z,5.68
2017-12-17T19:00:06.854Z,5.55
2017-12-17T19:02:35.176Z,5.70
2017-12-17T19:05:03.420Z,5.70
2017-12-17T19:07:31.702Z,5.66
2017-12-17T19:09:59.977Z,5.77
2017-12-17T19:12:28.931Z,5.75
2017-12-17T19:14:58.019Z,5.66
2017-12-17T19:17:26.291Z,5.78
2017-12-17T19:19:54.548Z,5.71
2017-12-17T19:22:22.898Z,5.83
2017-12-17T19:24:51.216Z,5.86
2017-12-17T19:27:19.467Z,6.01
2017-12-17T19:29:47.754Z,6.09
2017-12-17T19:32:16.105Z,6.16
2017-12-17T19:34:44.368Z,5.99
2017-12-17T19:37:12.620Z,5.88
2017-12-17T19:39:40.941Z,5.84
2017-12-17T19:42:09.237Z,5.83
2017-12-17T19:44:37.508Z,5.64
2017-12-17T19:47:05.763Z,5.73
2017-12-17T19:49:34.056Z,5.70
2017-12-17T19:52:02.334Z,5.84
2017-12-17T19:54:30.793Z,5.88
2017-12-17T19:56:59.194Z,5.71
2017-12-17T19:59:27.667Z,5.70
2017-12-17T20:01:56.205Z,5.72
2017-12-17T20:04:25.547Z,5.68
2017-12-17T20:06:54.093Z,5.64
2017-12-17T20:09:22.678Z,5.86
2017-12-17T20:11:51.228Z,5.77
2017-12-17T20:14:19.729Z,5.75
2017-12-17T20:16:48.262Z,5.73
2017-12-17T20:19:16.820Z,5.73
2017-12-17T20:21:45.362Z,5.85
2017-12-17T20:24:13.910Z,5.86
2017-12-17T20:26:42.520Z,5.85
2017-12-17T20:29:13.705Z,5.96
2017-12-17T20:31:39.716Z,5.78
2017-12-17T20:34:08.280Z,5.83
2017-12-17T20:36:36.861Z,5.78
2017-12-17T20:39:05.399Z,5.66
2017-12-17T20:41:33.916Z,5.64
2017-12-17T20:44:02.492Z,5.68
2017-12-17T20:46:31.012Z,5.68
2017-12-17T20:48:59.275Z,5.74
2017-12-17T20:51:27.585Z,5.73
2017-12-17T20:53:55.851Z,5.74
2017-12-17T20:56:24.161Z,5.76
2017-12-17T20:58:52.417Z,5.65
2017-12-17T21:01:20.720Z,5.67
2017-12-17T21:03:48.997Z,5.69
2017-12-17T21:06:17.296Z,5.73
2017-12-17T21:08:45.539Z,5.69
2017-12-17T21:11:13.851Z,5.72
2017-12-17T21:13:42.150Z,5.62
2017-12-17T21:16:10.458Z,5.60
2017-12-17T21:18:38.733Z,5.44
2017-12-17T21:21:07.011Z,5.67
2017-12-17T21:23:35.296Z,5.43
2017-12-17T21:26:03.565Z,5.41
2017-12-17T21:28:31.851Z,5.47
2017-12-17T21:31:00.117Z,5.47
2017-12-17T21:33:28.419Z,5.54
2017-12-17T21:35:56.673Z,5.50
2017-12-17T21:38:24.959Z,5.51
2017-12-17T21:40:53.269Z,5.57
2017-12-17T21:43:21.515Z,5.63
2017-12-17T21:45:49.771Z,5.70
2017-12-17T21:48:18.058Z,5.93
2017-12-17T21:50:46.335Z,5.75
2017-12-17T21:53:14.621Z,5.86
2017-12-17T21:55:42.881Z,5.67
2017-12-17T21:58:11.169Z,5.62
2017-12-17T22:00:39.440Z,5.65
2017-12-17T22:03:07.891Z,5.52
2017-12-17T22:05:36.182Z,5.60
2017-12-17T22:08:05.120Z,5.65
2017-12-17T22:10:33.432Z,5.66
2017-12-17T22:13:01.701Z,5.55
2017-12-17T22:15:30.027Z,5.44
2017-12-17T22:17:58.281Z,5.28
2017-12-17T22:20:26.576Z,5.28
2017-12-17T22:22:54.845Z,5.27
2017-12-17T22:25:23.156Z,5.45
2017-12-17T22:27:51.464Z,5.53
2017-12-17T22:30:19.752Z,5.56
2017-12-17T22:32:48.048Z,5.53
2017-12-17T22:35:16.548Z,5.64
2017-12-17T22:37:44.804Z,5.62
2017-12-17T22:40:13.073Z,5.59
2017-12-17T22:42:41.348Z,5.64
2017-12-17T22:45:09.608Z,5.40
2017-12-17T22:47:37.909Z,5.19
2017-12-17T22:50:06.176Z,5.18
2017-12-17T22:52:34.460Z,5.15
2017-12-17T22:55:02.711Z,5.16
2017-12-17T22:57:31.109Z,5.05
2017-12-17T22:59:59.328Z,5.17
2017-12-17T23:02:27.607Z,5.12
2017-12-17T23:04:55.891Z,5.00
2017-12-17T23:07:24.179Z,5.06
2017-12-17T23:09:52.450Z,4.99
2017-12-17T23:12:20.746Z,5.09
2017-12-17T23:14:49.046Z,5.12
2017-12-17T23:17:17.317Z,5.06
2017-12-17T23:19:45.598Z,5.02
2017-12-17T23:22:13.875Z,5.01
2017-12-17T23:24:42.151Z,5.04
2017-12-17T23:27:10.412Z,5.00
2017-12-17T23:29:38.687Z,4.98
2017-12-17T23:32:06.948Z,4.86
2017-12-17T23:34:35.244Z,4.85
2017-12-17T23:37:03.525Z,4.94
2017-12-17T23:39:31.780Z,4.85
2017-12-17T23:42:00.352Z,4.75
2017-12-17T23:44:28.615Z,4.90
2017-12-17T23:46:56.902Z,4.96
2017-12-17T23:49:25.228Z,4.79
2017-12-17T23:51:53.487Z,4.85
2017-12-17T23:54:21.948Z,4.87
2017-12-17T23:56:50.208Z,4.83
2017-12-17T23:59:18.557Z,4.78
